Time;durP1;ratioP1;P1;durP2;ratioP2;P2;SDS_P1;SDS_P2;PMS_P1;PMS_P2;Temp;Humidity;BMP_temperature;BMP_pressure;BME280_temperature;BME280_humidity;BME280_pressure;Samples;Min_cycle;Max_cycle;Signal;HPM_P1;HPM_P2
2023/07/01 00:00:14;;;;;;;7.95;5.25;;;;;;;26.95;52.68;98008.50;2062817;28;20097;-49
2023/07/01 00:01:16;;;;;;;10.48;5.30;;;;;;;26.93;52.69;98008.75;2063404;28;20471;-52
2023/07/01 00:02:16;;;;;;;7.10;5.38;;;;;;;26.93;52.32;98011.47;2061354;28;21003;-50
2023/07/01 00:03:18;;;;;;;9.05;4.65;;;;;;;26.93;52.30;97997.88;2063499;28;20133;-53
2023/07/01 00:04:19;;;;;;;9.07;5.20;;;;;;;26.94;52.22;97998.66;2060953;28;20061;-49
2023/07/01 00:05:21;;;;;;;9.63;5.60;;;;;;;26.91;52.37;97993.78;2060021;28;20042;-54
2023/07/01 00:06:23;;;;;;;8.98;5.55;;;;;;;26.92;52.63;97993.53;2062862;28;20050;-54
2023/07/01 00:07:25;;;;;;;8.65;5.63;;;;;;;26.92;52.59;97998.97;2060417;28;20424;-53
2023/07/01 00:08:26;;;;;;;7.35;5.40;;;;;;;26.93;52.63;98000.59;2062177;28;20066;-53
2023/07/01 00:09:28;;;;;;;8.18;5.20;;;;;;;26.95;52.36;98005.78;2064310;28;20065;-50
2023/07/01 00:10:29;;;;;;;7.75;5.53;;;;;;;26.96;52.54;98008.19;2062788;28;20053;-49
2023/07/01 00:11:30;;;;;;;8.48;5.03;;;;;;;26.96;52.64;98010.09;2061898;28;20069;-49
2023/07/01 00:12:31;;;;;;;11.07;6.22;;;;;;;26.96;52.54;98021.00;2061550;28;20133;-53
2023/07/01 00:13:33;;;;;;;7.25;4.95;;;;;;;26.96;52.29;98027.25;2063776;28;20717;-50
2023/07/01 00:14:34;;;;;;;6.60;4.72;;;;;;;26.96;52.36;98027.25;2060358;28;20127;-52
2023/07/01 00:15:36;;;;;;;7.50;5.25;;;;;;;26.98;52.46;98034.34;2061129;28;20113;-53
2023/07/01 00:16:39;;;;;;;6.65;4.45;;;;;;;26.98;52.26;98027.00;2063238;28;20125;-51
2023/07/01 00:17:41;;;;;;;8.23;5.35;;;;;;;26.96;52.26;98024.53;2062975;28;20042;-47
2023/07/01 00:18:43;;;;;;;7.25;4.95;;;;;;;26.96;52.29;98021.81;2062433;28;20046;-50
2023/07/01 00:19:45;;;;;;;10.38;5.47;;;;;;;26.96;52.41;98021.00;2062857;28;20073;-50
2023/07/01 00:20:45;;;;;;;7.32;4.30;;;;;;;26.96;52.26;98021.81;2060531;28;20476;-51
2023/07/01 00:21:49;;;;;;;7.70;5.00;;;;;;;26.96;52.44;98019.09;2062308;28;20046;-47
2023/07/01 00:22:49;;;;;;;7.68;5.63;;;;;;;26.98;52.57;98018.00;2063553;28;20654;-50
2023/07/01 00:23:51;;;;;;;7.45;4.70;;;;;;;26.98;52.46;98015.28;2060927;28;20061;-53
2023/07/01 00:24:52;;;;;;;9.70;5.55;;;;;;;26.99;52.14;98020.44;2060341;28;20080;-48
2023/07/01 00:25:54;;;;;;;6.45;4.85;;;;;;;27.00;52.40;98021.28;2060359;28;20060;-53
2023/07/01 00:26:55;;;;;;;7.13;4.85;;;;;;;27.00;52.44;98016.66;2062242;28;20043;-51
2023/07/01 00:27:57;;;;;;;7.97;4.53;;;;;;;26.96;52.10;98016.38;2059664;28;20535;-52
2023/07/01 00:28:58;;;;;;;8.73;5.15;;;;;;;27.00;52.37;98021.28;2061506;28;20535;-54
2023/07/01 00:29:59;;;;;;;6.38;4.82;;;;;;;27.01;52.29;98015.56;2066557;28;20168;-54
2023/07/01 00:31:00;;;;;;;6.03;5.20;;;;;;;27.01;52.18;98009.31;2065388;28;20053;-51
2023/07/01 00:32:02;;;;;;;8.57;5.30;;;;;;;27.01;52.41;98009.31;2062230;28;20081;-52
2023/07/01 00:33:05;;;;;;;6.50;4.82;;;;;;;27.01;52.12;98006.56;2065001;28;20054;-54
2023/07/01 00:34:07;;;;;;;8.00;4.60;;;;;;;27.00;52.25;98000.31;2065654;28;20054;-49
2023/07/01 00:35:08;;;;;;;7.95;4.93;;;;;;;27.01;52.21;98009.31;2062726;28;20045;-51
2023/07/01 00:36:09;;;;;;;7.22;5.75;;;;;;;26.99;52.69;98009.56;2061968;28;20054;-50
2023/07/01 00:37:12;;;;;;;10.60;5.65;;;;;;;26.94;52.47;98002.22;2062160;28;20053;-49
2023/07/01 00:38:14;;;;;;;11.07;5.57;;;;;;;26.92;52.57;98004.41;2062066;28;20553;-47
2023/07/01 00:39:14;;;;;;;6.53;4.45;;;;;;;26.93;52.64;98005.22;2063142;28;20061;-51
2023/07/01 00:40:16;;;;;;;6.63;4.72;;;;;;;26.94;52.60;98004.97;2062838;28;20136;-50
2023/07/01 00:41:20;;;;;;;9.25;5.00;;;;;;;26.94;52.07;98002.22;2059910;28;20553;-54
2023/07/01 00:42:22;;;;;;;7.72;5.18;;;;;;;26.93;52.62;97995.13;2064461;28;20189;-51
2023/07/01 00:43:22;;;;;;;7.03;4.50;;;;;;;26.97;52.43;97995.44;2053682;28;20141;-54
2023/07/01 00:44:24;;;;;;;6.40;4.60;;;;;;;26.96;52.19;97993.78;2062800;28;20067;-47
2023/07/01 00:45:25;;;;;;;10.85;5.20;;;;;;;26.96;52.36;97991.06;2063529;28;20064;-52
2023/07/01 00:46:27;;;;;;;8.00;5.60;;;;;;;26.96;52.53;97993.78;2065371;28;20435;-52
2023/07/01 00:47:28;;;;;;;5.10;4.50;;;;;;;26.95;52.53;97998.41;2063568;28;20057;-50
2023/07/01 00:48:30;;;;;;;5.95;4.60;;;;;;;26.98;52.15;98001.69;2065155;28;20161;-47
2023/07/01 00:49:32;;;;;;;5.15;4.32;;;;;;;26.98;52.35;97998.97;2064805;28;20056;-51
2023/07/01 00:50:35;;;;;;;8.00;5.82;;;;;;;27.00;52.33;97996.78;2060066;28;20124;-48
2023/07/01 00:51:36;;;;;;;7.43;4.28;;;;;;;27.00;52.21;97997.59;2064043;28;20046;-54
2023/07/01 00:52:39;;;;;;;5.88;4.30;;;;;;;27.00;51.77;98005.78;2064592;28;20097;-50
2023/07/01 00:53:41;;;;;;;7.97;5.18;;;;;;;26.96;52.41;98004.66;2055894;28;20108;-51
2023/07/01 00:54:43;;;;;;;6.90;4.07;;;;;;;26.96;52.14;98004.66;2063603;28;20112;-52
2023/07/01 00:55:44;;;;;;;7.20;4.50;;;;;;;27.00;51.93;98005.78;2063077;28;20049;-51
2023/07/01 00:56:46;;;;;;;7.70;5.25;;;;;;;26.99;52.15;98006.03;2063322;28;20045;-50
2023/07/01 00:57:46;;;;;;;6.80;5.13;;;;;;;26.99;52.19;98003.31;2062496;28;20058;-49
2023/07/01 00:58:48;;;;;;;10.30;5.15;;;;;;;27.01;52.14;98006.56;2063932;28;20054;-52
2023/07/01 00:59:49;;;;;;;7.18;4.25;;;;;;;27.00;52.18;98007.69;2062287;28;20046;-46
2023/07/01 01:00:51;;;;;;;6.93;4.38;;;;;;;27.01;51.84;98012.03;2062766;28;20120;-52
2023/07/01 01:01:55;;;;;;;6.28;4.60;;;;;;;27.01;52.17;98003.84;2064730;28;20061;-53
2023/07/01 01:03:04;;;;;;;6.35;4.95;;;;;;;27.00;51.90;98004.97;2064422;28;20691;-52
2023/07/01 01:04:13;;;;;;;7.00;5.18;;;;;;;26.99;51.76;98004.13;2063509;28;20756;-53
2023/07/01 01:05:19;;;;;;;8.13;4.70;;;;;;;27.01;52.26;98001.13;2060792;28;20042;-52
2023/07/01 01:06:25;;;;;;;7.70;4.68;;;;;;;26.97;51.96;98006.31;2060883;28;20047;-49
2023/07/01 01:07:32;;;;;;;6.95;4.95;;;;;;;26.97;52.12;97995.44;2063531;28;20060;-50
2023/07/01 01:08:43;;;;;;;6.32;4.97;;;;;;;26.96;52.09;97997.31;2061994;28;22774;-53
2023/07/01 01:09:50;;;;;;;5.53;3.95;;;;;;;26.95;52.02;97992.97;2062385;28;20650;-51
2023/07/01 01:10:53;;;;;;;6.10;4.28;;;;;;;26.99;51.99;97993.22;2064180;28;20057;-48
2023/07/01 01:11:57;;;;;;;5.78;4.50;;;;;;;26.97;51.75;97981.81;2057738;28;20420;-50
2023/07/01 01:13:00;;;;;;;6.30;4.65;;;;;;;27.00;51.99;97988.63;2062787;28;20072;-51
2023/07/01 01:14:05;;;;;;;6.80;4.63;;;;;;;26.99;51.70;97982.34;2064247;28;20046;-52
2023/07/01 01:15:08;;;;;;;7.10;4.43;;;;;;;26.99;51.84;97984.25;2063714;28;20594;-48
2023/07/01 01:16:11;;;;;;;6.82;4.53;;;;;;;26.99;52.04;97982.34;2061202;28;20047;-52
2023/07/01 01:17:14;;;;;;;5.45;3.95;;;;;;;26.99;51.69;97993.22;2061641;28;20098;-52
2023/07/01 01:18:17;;;;;;;7.25;4.38;;;;;;;26.99;52.14;97981.53;2065343;28;20116;-53
2023/07/01 01:19:27;;;;;;;6.38;4.35;;;;;;;27.00;52.14;97988.63;2063076;28;20049;-48
2023/07/01 01:20:31;;;;;;;8.30;4.70;;;;;;;26.97;51.95;97984.53;2062977;28;20089;-52
2023/07/01 01:21:34;;;;;;;7.15;4.65;;;;;;;26.96;51.85;97972.81;2063611;28;20054;-47
2023/07/01 01:22:44;;;;;;;7.65;4.70;;;;;;;26.96;51.85;97980.19;2062541;28;20045;-50
2023/07/01 01:23:52;;;;;;;7.00;4.57;;;;;;;26.96;52.22;97980.19;2063930;28;20049;-52
2023/07/01 01:24:56;;;;;;;6.22;4.50;;;;;;;26.96;51.87;97977.44;2063272;28;20054;-49
2023/07/01 01:26:05;;;;;;;9.40;5.38;;;;;;;26.95;52.26;97981.28;2062673;28;20050;-49
2023/07/01 01:27:12;;;;;;;6.13;4.53;;;;;;;26.98;52.14;97982.63;2060150;28;20081;-50
2023/07/01 01:28:14;;;;;;;4.55;4.10;;;;;;;26.95;51.84;97987.53;2064317;28;20050;-46
2023/07/01 01:29:16;;;;;;;5.47;4.30;;;;;;;26.96;52.21;97977.44;2063400;28;20061;-51
2023/07/01 01:30:17;;;;;;;6.80;4.47;;;;;;;26.95;51.91;97982.09;2061315;28;20053;-52
2023/07/01 01:31:20;;;;;;;6.55;4.45;;;;;;;26.95;52.14;97976.66;2062691;28;20054;-52
2023/07/01 01:32:20;;;;;;;5.85;4.43;;;;;;;26.95;51.91;97979.38;2063799;28;20054;-49
2023/07/01 01:33:22;;;;;;;6.70;4.07;;;;;;;26.96;52.06;97974.72;2064144;28;20076;-48
2023/07/01 01:34:23;;;;;;;5.93;5.05;;;;;;;26.96;52.00;97978.25;2063860;28;20042;-48
2023/07/01 01:35:25;;;;;;;8.38;4.55;;;;;;;26.99;52.04;97978.81;2064144;28;20129;-50
2023/07/01 01:36:33;;;;;;;7.18;4.45;;;;;;;26.97;51.85;97984.53;2061256;28;20065;-51
2023/07/01 01:37:42;;;;;;;6.68;4.57;;;;;;;26.96;52.11;97978.25;2063617;28;20140;-52
2023/07/01 01:38:45;;;;;;;5.82;3.92;;;;;;;26.98;51.71;97971.75;2062726;28;20846;-47
2023/07/01 01:39:50;;;;;;;7.15;4.53;;;;;;;27.00;51.60;97975.03;2061780;28;20061;-47
2023/07/01 01:40:56;;;;;;;6.43;4.40;;;;;;;27.00;51.90;97975.84;2062447;28;20185;-49
2023/07/01 01:42:04;;;;;;;5.53;4.25;;;;;;;26.97;51.59;97973.66;2064125;28;20158;-48
2023/07/01 01:43:12;;;;;;;6.05;4.63;;;;;;;26.93;51.82;97964.41;2062247;28;20053;-52
2023/07/01 01:44:22;;;;;;;7.32;4.28;;;;;;;26.95;51.94;97968.47;2062189;28;20078;-52
2023/07/01 01:45:24;;;;;;;5.40;4.65;;;;;;;26.95;51.61;97973.91;2062087;28;20095;-53
2023/07/01 01:46:26;;;;;;;5.95;4.80;;;;;;;26.95;51.63;97967.66;2061497;28;20643;-53
2023/07/01 01:47:31;;;;;;;8.00;5.28;;;;;;;26.98;51.93;97974.47;2061640;28;20042;-51
2023/07/01 01:48:32;;;;;;;7.10;5.15;;;;;;;26.98;51.46;97971.75;2064199;28;20077;-53
2023/07/01 01:49:35;;;;;;;6.18;4.60;;;;;;;27.01;51.47;97979.38;2061442;28;20148;-50
2023/07/01 01:50:39;;;;;;;5.82;4.15;;;;;;;26.98;51.72;97977.19;2062043;28;20069;-52
2023/07/01 01:51:42;;;;;;;7.35;5.05;;;;;;;26.99;51.56;97978.81;2062021;28;20049;-51
2023/07/01 01:52:43;;;;;;;10.30;5.57;;;;;;;26.93;51.68;97978.00;2062847;28;20057;-50
2023/07/01 01:53:46;;;;;;;6.22;5.47;;;;;;;26.93;51.96;97975.28;2064553;28;20052;-48
2023/07/01 01:54:50;;;;;;;6.47;4.45;;;;;;;26.92;51.80;97979.09;2061698;28;20069;-48
2023/07/01 01:55:52;;;;;;;7.25;4.93;;;;;;;26.92;51.38;97981.81;2063829;28;20065;-51
2023/07/01 01:56:53;;;;;;;7.45;4.90;;;;;;;26.92;51.44;97982.63;2059177;28;20848;-51
2023/07/01 01:57:55;;;;;;;7.00;4.20;;;;;;;26.95;51.64;97976.66;2064494;28;20060;-49
2023/07/01 01:58:56;;;;;;;8.32;4.93;;;;;;;26.99;51.57;97981.53;2062673;28;20049;-51
2023/07/01 01:59:59;;;;;;;8.30;4.88;;;;;;;26.98;51.69;97979.91;2062301;28;20133;-50
2023/07/01 02:01:00;;;;;;;7.85;4.68;;;;;;;26.96;51.86;97975.53;2061440;28;20421;-53
2023/07/01 02:02:02;;;;;;;5.63;4.55;;;;;;;26.95;51.26;97973.91;2064486;28;20129;-50
2023/07/01 02:03:03;;;;;;;5.95;3.65;;;;;;;26.96;51.62;97978.25;2062063;28;20050;-50
2023/07/01 02:04:05;;;;;;;7.95;4.47;;;;;;;26.97;51.49;97968.22;2061808;28;20046;-50
2023/07/01 02:05:06;;;;;;;5.30;4.72;;;;;;;27.00;51.28;97975.84;2061755;28;20050;-50
2023/07/01 02:06:08;;;;;;;7.85;4.75;;;;;;;26.96;51.70;97970.09;2062851;28;20046;-53
2023/07/01 02:07:09;;;;;;;8.32;5.20;;;;;;;26.95;51.81;97968.47;2062415;28;20400;-50
2023/07/01 02:08:11;;;;;;;6.03;4.18;;;;;;;26.97;51.83;97968.22;2063203;28;20137;-47
2023/07/01 02:09:12;;;;;;;6.60;4.30;;;;;;;26.95;52.02;97968.47;2063108;28;20042;-52
2023/07/01 02:10:14;;;;;;;7.57;4.47;;;;;;;26.94;51.51;97964.13;2064170;28;20562;-50
2023/07/01 02:11:15;;;;;;;7.40;4.15;;;;;;;26.96;51.79;97961.13;2062412;28;20157;-48
2023/07/01 02:12:17;;;;;;;6.40;4.28;;;;;;;26.96;51.99;97956.50;2063645;28;20084;-52
2023/07/01 02:13:18;;;;;;;5.70;4.45;;;;;;;26.95;51.51;97959.50;2062946;28;20136;-50
2023/07/01 02:14:19;;;;;;;6.00;4.40;;;;;;;26.96;51.88;97955.69;2064032;28;20410;-50
2023/07/01 02:15:22;;;;;;;7.40;4.18;;;;;;;26.95;51.51;97952.16;2060922;28;20041;-48
2023/07/01 02:16:24;;;;;;;5.15;4.60;;;;;;;26.94;51.96;97961.41;2061328;28;20053;-48
2023/07/01 02:17:24;;;;;;;7.30;4.85;;;;;;;26.94;51.81;97958.69;2062777;28;20046;-51
2023/07/01 02:18:26;;;;;;;6.90;4.70;;;;;;;26.94;51.79;97957.84;2061592;28;20049;-52
2023/07/01 02:19:27;;;;;;;8.98;4.40;;;;;;;26.91;51.54;97951.09;2064288;28;20401;-48
2023/07/01 02:20:29;;;;;;;6.82;5.03;;;;;;;26.92;51.87;97949.16;2061853;28;20141;-50
2023/07/01 02:21:30;;;;;;;7.25;4.70;;;;;;;26.96;51.83;97956.50;2062607;28;20104;-53
2023/07/01 02:22:32;;;;;;;6.65;4.53;;;;;;;26.95;51.67;97956.78;2063357;28;20137;-47
2023/07/01 02:23:33;;;;;;;5.82;4.47;;;;;;;26.94;51.67;97955.97;2062086;28;20060;-50
2023/07/01 02:24:35;;;;;;;7.15;4.25;;;;;;;26.94;51.46;97953.25;2060822;28;20720;-49
2023/07/01 02:25:36;;;;;;;5.50;4.00;;;;;;;26.91;51.57;97951.09;2061451;28;20090;-51
2023/07/01 02:26:37;;;;;;;6.28;4.82;;;;;;;26.93;51.33;97950.78;2061803;28;20368;-49
2023/07/01 02:27:38;;;;;;;6.85;4.30;;;;;;;26.92;51.66;97949.16;2065480;28;20115;-53
2023/07/01 02:28:40;;;;;;;6.65;4.45;;;;;;;26.92;51.50;97944.53;2061936;28;20198;-50
2023/07/01 02:29:44;;;;;;;6.68;4.18;;;;;;;26.94;51.60;97946.97;2063539;28;20456;-53
2023/07/01 02:30:46;;;;;;;5.35;4.00;;;;;;;26.94;51.72;97942.38;2061710;28;20169;-50
2023/07/01 02:31:48;;;;;;;6.25;4.40;;;;;;;26.95;51.52;97944.00;2062104;28;20049;-52
2023/07/01 02:32:50;;;;;;;8.10;4.90;;;;;;;26.93;51.60;97942.63;2064969;28;20041;-49
2023/07/01 02:33:51;;;;;;;5.53;4.40;;;;;;;26.94;51.87;97949.69;2059785;28;20069;-50
2023/07/01 02:34:53;;;;;;;6.20;4.82;;;;;;;26.91;51.92;97953.81;2062288;28;20120;-48
2023/07/01 02:35:54;;;;;;;6.80;4.60;;;;;;;26.92;51.64;97949.97;2063224;28;20060;-52
2023/07/01 02:36:56;;;;;;;5.15;3.80;;;;;;;26.95;51.58;97949.44;2064225;28;20052;-52
2023/07/01 02:37:57;;;;;;;5.50;4.45;;;;;;;26.94;51.51;97957.84;2062276;28;20095;-51
2023/07/01 02:38:59;;;;;;;6.38;4.63;;;;;;;26.93;51.64;97959.75;2061287;28;20526;-48
2023/07/01 02:39:59;;;;;;;7.50;4.50;;;;;;;26.92;51.79;97957.34;2064274;28;20068;-48
2023/07/01 02:41:01;;;;;;;7.70;4.88;;;;;;;26.93;51.90;97965.22;2063041;28;20045;-51
2023/07/01 02:42:03;;;;;;;6.22;4.18;;;;;;;26.94;51.48;97958.69;2062860;28;20057;-51
2023/07/01 02:43:05;;;;;;;5.85;4.13;;;;;;;26.95;51.55;97962.22;2064758;28;20084;-48
2023/07/01 02:44:06;;;;;;;6.82;4.80;;;;;;;26.96;51.70;97966.56;2064056;28;20385;-48
2023/07/01 02:45:09;;;;;;;8.02;4.07;;;;;;;26.96;51.70;97961.13;2062805;28;20054;-48
2023/07/01 02:46:11;;;;;;;8.15;4.45;;;;;;;26.93;51.68;97962.50;2062247;28;20046;-47
2023/07/01 02:47:13;;;;;;;9.45;4.75;;;;;;;26.90;51.78;97963.03;2061530;28;20119;-51
2023/07/01 02:48:14;;;;;;;11.68;4.35;;;;;;;26.87;51.84;97968.22;2061192;28;20085;-48
2023/07/01 02:49:16;;;;;;;8.52;5.32;;;;;;;26.87;51.57;97965.50;2060333;28;22253;-47
2023/07/01 02:50:17;;;;;;;9.02;5.18;;;;;;;26.87;51.85;97963.59;2060492;28;20058;-52
2023/07/01 02:51:18;;;;;;;6.22;4.90;;;;;;;26.90;51.49;97962.22;2061024;28;20072;-48
2023/07/01 02:52:19;;;;;;;6.50;4.28;;;;;;;26.91;51.46;97961.97;2059879;28;20618;-47
2023/07/01 02:53:21;;;;;;;8.55;4.35;;;;;;;26.89;51.55;97966.88;2062470;28;20065;-48
2023/07/01 02:54:22;;;;;;;6.57;4.47;;;;;;;26.89;51.48;97961.41;2060222;28;20046;-48
2023/07/01 02:55:29;;;;;;;4.90;3.92;;;;;;;26.88;51.38;97962.50;2063262;28;20053;-51
2023/07/01 02:56:30;;;;;;;4.07;3.50;;;;;;;26.87;52.01;97960.88;2061717;28;20145;-51
2023/07/01 02:57:31;;;;;;;5.05;3.95;;;;;;;26.90;51.47;97963.03;2062256;28;20072;-46
2023/07/01 02:58:32;;;;;;;4.72;3.63;;;;;;;26.88;51.56;97959.75;2058833;28;20078;-52
2023/07/01 02:59:34;;;;;;;6.90;4.78;;;;;;;26.91;51.59;97959.25;2060368;28;20046;-46
2023/07/01 03:00:35;;;;;;;5.65;3.80;;;;;;;26.89;51.84;97957.88;2062308;28;20157;-47
2023/07/01 03:01:38;;;;;;;6.47;4.43;;;;;;;26.90;52.05;97959.50;2062532;28;20049;-53
2023/07/01 03:02:39;;;;;;;5.20;3.70;;;;;;;26.90;51.62;97962.22;2062827;28;20809;-51
2023/07/01 03:03:41;;;;;;;4.82;3.65;;;;;;;26.91;51.52;97963.84;2062588;28;20042;-51
2023/07/01 03:04:42;;;;;;;6.50;4.38;;;;;;;26.89;51.80;97953.25;2062760;28;20424;-50
2023/07/01 03:05:44;;;;;;;5.20;4.25;;;;;;;26.88;51.74;97957.03;2060858;28;20073;-48
2023/07/01 03:06:45;;;;;;;7.88;4.80;;;;;;;26.89;51.72;97961.41;2062078;28;20153;-49
2023/07/01 03:07:47;;;;;;;4.72;3.67;;;;;;;26.88;51.53;97950.78;2059165;28;20046;-55
2023/07/01 03:08:48;;;;;;;5.55;3.88;;;;;;;26.89;51.57;97947.81;2062219;28;20062;-51
2023/07/01 03:09:50;;;;;;;7.68;4.88;;;;;;;26.87;51.71;97941.81;2061551;28;20050;-50
2023/07/01 03:10:50;;;;;;;6.90;4.25;;;;;;;26.87;51.99;97939.09;2060885;28;20058;-51
2023/07/01 03:11:53;;;;;;;7.18;4.43;;;;;;;26.89;51.90;97928.78;2061337;28;20141;-53
2023/07/01 03:12:54;;;;;;;8.48;4.68;;;;;;;26.90;51.82;97937.75;2060121;28;20042;-48
2023/07/01 03:13:56;;;;;;;6.85;3.88;;;;;;;26.89;51.75;97931.50;2059770;28;20757;-50
2023/07/01 03:14:56;;;;;;;4.40;3.80;;;;;;;26.91;51.74;97940.19;2059712;28;20516;-51
2023/07/01 03:15:58;;;;;;;6.13;3.85;;;;;;;26.92;51.39;97936.38;2059526;28;20045;-53
2023/07/01 03:17:01;;;;;;;6.47;4.85;;;;;;;26.93;51.46;97934.47;2059823;28;20543;-51
2023/07/01 03:18:03;;;;;;;6.32;4.22;;;;;;;26.91;51.25;97932.03;2061650;28;20053;-48
2023/07/01 03:19:05;;;;;;;6.72;3.97;;;;;;;26.92;51.55;97930.13;2060206;28;20115;-51
2023/07/01 03:20:20;;;;;;;5.97;4.00;;;;;;;26.90;51.39;97924.94;2060607;28;20840;-51
2023/07/01 03:21:21;;;;;;;5.40;3.85;;;;;;;26.88;51.40;97924.41;2059585;28;20416;-49
2023/07/01 03:22:22;;;;;;;7.95;4.63;;;;;;;26.87;51.48;97930.94;2059410;28;20156;-51
2023/07/01 03:23:23;;;;;;;9.20;4.60;;;;;;;26.87;51.57;97930.94;2060838;28;20054;-51
2023/07/01 03:24:33;;;;;;;9.25;4.45;;;;;;;26.88;51.41;97931.75;2063126;28;20045;-52
2023/07/01 03:25:35;;;;;;;6.65;3.70;;;;;;;26.86;51.32;97923.88;2058016;28;20057;-52
2023/07/01 03:26:37;;;;;;;6.03;4.25;;;;;;;26.87;51.08;97924.69;2061239;28;20135;-50
2023/07/01 03:27:38;;;;;;;4.63;3.42;;;;;;;26.85;51.33;97915.97;2059523;28;20053;-51
2023/07/01 03:28:40;;;;;;;5.38;4.15;;;;;;;26.88;51.09;97918.94;2062357;28;20056;-47
2023/07/01 03:29:41;;;;;;;7.22;4.10;;;;;;;26.84;51.51;97914.34;2058885;28;20053;-50
2023/07/01 03:30:43;;;;;;;6.55;4.00;;;;;;;26.86;51.42;97914.91;2060607;28;20075;-51
2023/07/01 03:31:44;;;;;;;6.78;4.30;;;;;;;26.84;51.51;97919.78;2060258;28;20054;-50
2023/07/01 03:32:48;;;;;;;6.05;3.92;;;;;;;26.86;51.26;97914.91;2062006;28;20053;-49
2023/07/01 03:33:50;;;;;;;7.15;3.92;;;;;;;26.83;51.28;97924.44;2060230;28;20061;-49
2023/07/01 03:34:52;;;;;;;7.47;4.13;;;;;;;26.83;51.11;97916.28;2057949;28;20535;-50
2023/07/01 03:35:53;;;;;;;5.00;3.35;;;;;;;26.86;51.26;97923.88;2060012;28;20049;-53
2023/07/01 03:36:54;;;;;;;4.80;3.70;;;;;;;26.87;51.47;97922.78;2059676;28;20046;-51
2023/07/01 03:37:55;;;;;;;6.88;4.60;;;;;;;26.85;51.19;97924.94;2062449;28;20046;-47
2023/07/01 03:38:58;;;;;;;4.85;3.80;;;;;;;26.89;51.32;97930.69;2059135;28;20050;-51
2023/07/01 03:39:59;;;;;;;5.10;3.45;;;;;;;26.88;51.27;97929.84;2062673;28;20544;-50
2023/07/01 03:41:01;;;;;;;6.60;4.13;;;;;;;26.87;51.23;97930.94;2062381;28;20053;-49
2023/07/01 03:42:02;;;;;;;5.28;3.90;;;;;;;26.85;51.13;97927.66;2064255;28;20065;-53
2023/07/01 03:43:04;;;;;;;5.45;3.65;;;;;;;26.85;51.22;97932.31;2061094;28;20058;-51
2023/07/01 03:44:05;;;;;;;5.60;4.10;;;;;;;26.86;51.01;97932.03;2060609;28;20042;-48
2023/07/01 03:45:10;;;;;;;4.97;3.83;;;;;;;26.87;51.27;97930.13;2061457;28;20053;-53
2023/07/01 03:46:10;;;;;;;5.85;4.18;;;;;;;26.88;51.27;97932.56;2060378;28;20073;-53
2023/07/01 03:47:13;;;;;;;5.53;4.30;;;;;;;26.88;51.19;97927.13;2061939;28;20140;-51
2023/07/01 03:48:15;;;;;;;5.20;4.15;;;;;;;26.88;51.16;97929.84;2061763;28;20065;-55
2023/07/01 03:49:17;;;;;;;5.90;3.97;;;;;;;26.85;50.76;97930.38;2061210;28;20054;-47
2023/07/01 03:50:18;;;;;;;3.47;3.13;;;;;;;26.86;50.73;97923.06;2061900;28;20069;-52
2023/07/01 03:51:20;;;;;;;6.10;3.35;;;;;;;26.84;51.19;97925.25;2063098;28;20049;-49
2023/07/01 03:52:21;;;;;;;5.70;3.45;;;;;;;26.83;51.09;97929.88;2061524;28;20523;-48
2023/07/01 03:53:23;;;;;;;5.85;3.90;;;;;;;26.81;51.12;97923.88;2059998;28;20065;-46
2023/07/01 03:54:23;;;;;;;7.43;3.80;;;;;;;26.84;50.96;97922.53;2059555;28;20050;-51
2023/07/01 03:55:26;;;;;;;6.28;4.72;;;;;;;26.85;50.88;97922.22;2061969;28;20172;-52
2023/07/01 03:56:27;;;;;;;5.40;4.03;;;;;;;26.83;50.90;97916.28;2064186;28;20050;-51
2023/07/01 03:57:29;;;;;;;5.28;4.13;;;;;;;26.85;50.76;97919.50;2062386;28;20050;-49
2023/07/01 03:58:30;;;;;;;6.57;4.10;;;;;;;26.85;50.82;97913.25;2060569;28;20082;-49
2023/07/01 03:59:32;;;;;;;5.40;3.50;;;;;;;26.85;50.96;97919.50;2062222;28;20650;-47
2023/07/01 04:00:33;;;;;;;5.07;3.67;;;;;;;26.85;51.02;97914.06;2059999;28;20062;-50
2023/07/01 04:01:36;;;;;;;5.38;3.00;;;;;;;26.86;50.88;97913.00;2060321;28;20058;-52
2023/07/01 04:02:37;;;;;;;5.35;3.80;;;;;;;26.85;50.98;97916.78;2063230;28;20061;-52
2023/07/01 04:03:40;;;;;;;4.63;3.70;;;;;;;26.83;51.43;97919.00;2059561;28;20622;-47
2023/07/01 04:04:42;;;;;;;5.68;4.10;;;;;;;26.83;51.38;97909.97;2063674;28;20050;-48
2023/07/01 04:05:43;;;;;;;5.60;4.00;;;;;;;26.85;51.24;97916.78;2059324;28;20560;-50
2023/07/01 04:06:44;;;;;;;5.82;4.18;;;;;;;26.83;51.09;97916.28;2060034;28;20053;-50
2023/07/01 04:07:48;;;;;;;6.82;3.63;;;;;;;26.82;51.31;97911.91;2064635;28;20068;-51
2023/07/01 04:08:54;;;;;;;4.95;3.63;;;;;;;26.81;51.08;97914.91;2062681;28;20054;-54
2023/07/01 04:09:57;;;;;;;6.88;3.92;;;;;;;26.81;51.30;97913.00;2063111;28;20053;-52
2023/07/01 04:10:58;;;;;;;5.35;3.45;;;;;;;26.81;51.08;97914.91;2062814;28;20148;-52
2023/07/01 04:12:00;;;;;;;5.53;3.50;;;;;;;26.79;51.48;97915.16;2063462;28;20521;-52
2023/07/01 04:13:01;;;;;;;4.03;3.17;;;;;;;26.81;51.20;97914.91;2063503;28;20053;-54
2023/07/01 04:14:03;;;;;;;5.20;4.03;;;;;;;26.83;51.19;97919.00;2064143;28;20504;-51
2023/07/01 04:15:09;;;;;;;5.90;3.47;;;;;;;26.81;51.36;97915.72;2066033;28;20053;-50
2023/07/01 04:16:11;;;;;;;4.70;4.03;;;;;;;26.79;51.07;97912.44;2060374;28;20045;-51
2023/07/01 04:17:12;;;;;;;5.38;3.63;;;;;;;26.80;51.36;97908.66;2053917;28;20111;-51
2023/07/01 04:18:14;;;;;;;5.25;3.88;;;;;;;26.81;50.94;97910.28;2062737;28;20416;-50
2023/07/01 04:19:16;;;;;;;5.72;3.28;;;;;;;26.83;50.98;97907.25;2063540;28;20054;-48
2023/07/01 04:20:19;;;;;;;5.93;3.75;;;;;;;26.81;51.03;97904.84;2060101;28;20451;-50
2023/07/01 04:21:21;;;;;;;5.07;3.58;;;;;;;26.82;51.19;97906.47;2060494;28;20061;-47
2023/07/01 04:22:23;;;;;;;6.18;3.78;;;;;;;26.83;50.91;97899.94;2063879;28;20144;-48
2023/07/01 04:23:24;;;;;;;5.90;3.97;;;;;;;26.82;50.93;97909.19;2063497;28;20144;-47
2023/07/01 04:24:26;;;;;;;4.57;3.10;;;;;;;26.81;51.45;97906.75;2061974;28;20054;-49
2023/07/01 04:25:27;;;;;;;5.32;3.47;;;;;;;26.81;50.99;97910.28;2064374;28;20054;-49
2023/07/01 04:26:29;;;;;;;6.47;3.55;;;;;;;26.78;50.94;97905.38;2064514;28;20603;-50
2023/07/01 04:27:30;;;;;;;5.75;2.95;;;;;;;26.81;51.00;97907.56;2064734;28;20073;-49
2023/07/01 04:28:31;;;;;;;4.40;2.90;;;;;;;26.80;51.37;97916.81;2061212;28;20137;-51
2023/07/01 04:29:32;;;;;;;6.25;3.55;;;;;;;26.82;50.90;97920.06;2064577;28;20465;-50
2023/07/01 04:30:34;;;;;;;7.00;3.85;;;;;;;26.81;50.95;97923.88;2061834;28;20049;-47
2023/07/01 04:31:35;;;;;;;7.38;3.22;;;;;;;26.82;51.22;97920.06;2062280;28;20054;-49
2023/07/01 04:32:37;;;;;;;7.15;3.42;;;;;;;26.81;51.23;97925.78;2062845;28;20054;-49
2023/07/01 04:33:38;;;;;;;7.22;4.25;;;;;;;26.79;51.41;97917.88;2065149;28;20050;-53
2023/07/01 04:34:41;;;;;;;5.05;3.25;;;;;;;26.79;51.05;97912.44;2062806;28;20595;-50
2023/07/01 04:35:42;;;;;;;4.22;3.20;;;;;;;26.80;51.40;97914.09;2059907;28;20050;-50
2023/07/01 04:36:44;;;;;;;4.75;3.30;;;;;;;26.80;51.08;97915.97;2060711;28;20133;-49
2023/07/01 04:37:44;;;;;;;5.53;3.50;;;;;;;26.82;51.22;97914.63;2064338;28;20497;-50
2023/07/01 04:38:46;;;;;;;6.40;3.72;;;;;;;26.81;51.17;97918.44;2064443;28;20042;-50
2023/07/01 04:39:47;;;;;;;5.10;3.35;;;;;;;26.80;50.84;97919.53;2061607;28;20065;-53
2023/07/01 04:40:49;;;;;;;3.72;3.15;;;;;;;26.77;51.28;97921.97;2062680;28;20133;-53
2023/07/01 04:41:50;;;;;;;4.65;3.72;;;;;;;26.76;51.25;97921.16;2067029;28;20053;-48
2023/07/01 04:42:52;;;;;;;4.45;3.47;;;;;;;26.74;51.37;97917.91;2063055;28;20080;-50
2023/07/01 04:43:53;;;;;;;7.03;3.25;;;;;;;26.74;51.17;97909.72;2063576;28;20058;-50
2023/07/01 04:44:54;;;;;;;5.45;3.90;;;;;;;26.75;51.06;97916.81;2064942;28;20136;-49
2023/07/01 04:45:56;;;;;;;4.72;3.70;;;;;;;26.75;51.34;97911.38;2062025;28;20073;-51
2023/07/01 04:46:57;;;;;;;6.15;3.70;;;;;;;26.76;51.20;97915.72;2062950;28;20652;-47
2023/07/01 04:48:00;;;;;;;4.47;3.47;;;;;;;26.79;50.94;97922.53;2063835;28;20077;-51
2023/07/01 04:49:00;;;;;;;8.07;3.85;;;;;;;26.79;50.95;97920.63;2063736;28;20170;-48
2023/07/01 04:50:04;;;;;;;3.70;2.83;;;;;;;26.79;51.34;97917.88;2061723;28;20055;-52
2023/07/01 04:51:05;;;;;;;3.72;3.00;;;;;;;26.77;51.13;97921.97;2060381;28;20133;-47
2023/07/01 04:52:07;;;;;;;6.25;3.65;;;;;;;26.78;51.64;97927.16;2060310;28;20054;-50
2023/07/01 04:53:08;;;;;;;5.95;3.22;;;;;;;26.76;51.36;97923.06;2065071;28;20085;-51